Time;durP1;ratioP1;P1;durP2;ratioP2;P2;SDS_P1;SDS_P2;PMS_P1;PMS_P2;Temp;Humidity;BMP_temperature;BMP_pressure;BME280_temperature;BME280_humidity;BME280_pressure;Samples;Min_cycle;Max_cycle;Signal;HPM_P1;HPM_P2
2022/01/15 00:00:34;;;;;;;22.00;12.50;;;4.70;99.90;;;;;;5066434;28;20420;-41
2022/01/15 00:03:00;;;;;;;17.73;11.27;;;4.50;99.90;;;;;;5069117;28;20447;-40
2022/01/15 00:05:26;;;;;;;19.27;11.60;;;4.50;99.90;;;;;;5060498;28;20463;-40
2022/01/15 00:07:52;;;;;;;18.43;10.90;;;4.60;99.90;;;;;;5060696;28;20420;-40
2022/01/15 00:10:21;;;;;;;21.63;11.30;;;4.50;99.90;;;;;;5067787;28;20472;-40
2022/01/15 00:12:47;;;;;;;20.40;10.77;;;4.50;99.90;;;;;;5068710;28;20468;-44
2022/01/15 00:15:24;;;;;;;21.43;10.90;;;4.60;99.90;;;;;;5085241;28;20422;-40
2022/01/15 00:18:13;;;;;;;21.90;13.13;;;4.50;99.90;;;;;;5088828;28;20514;-39
2022/01/15 00:20:36;;;;;;;19.00;10.97;;;4.80;99.90;;;;;;5068381;28;20923;-39
2022/01/15 00:23:02;;;;;;;18.90;11.80;;;4.70;99.90;;;;;;5063067;28;20430;-40
2022/01/15 00:25:30;;;;;;;17.57;11.03;;;4.50;99.90;;;;;;5067324;28;20805;-40
2022/01/15 00:27:57;;;;;;;18.20;10.60;;;4.50;99.90;;;;;;5068485;28;20428;-40
2022/01/15 00:30:23;;;;;;;18.83;10.63;;;4.60;99.90;;;;;;5066231;28;20426;-40
2022/01/15 00:32:51;;;;;;;17.77;11.53;;;4.50;99.90;;;;;;5068498;28;20600;-41
2022/01/15 00:35:19;;;;;;;20.20;11.73;;;4.40;99.90;;;;;;5061191;28;20613;-40
2022/01/15 00:37:45;;;;;;;21.20;11.73;;;4.50;99.90;;;;;;5065366;28;20505;-40
2022/01/15 00:40:14;;;;;;;19.33;11.20;;;4.70;99.90;;;;;;5067971;28;20407;-40
2022/01/15 00:42:40;;;;;;;22.73;11.90;;;4.40;99.90;;;;;;5068504;28;20420;-40
2022/01/15 00:45:12;;;;;;;21.70;13.10;;;4.50;99.90;;;;;;5068027;28;20419;-41
2022/01/15 00:47:38;;;;;;;21.90;12.60;;;4.50;99.90;;;;;;5068056;28;20565;-41
2022/01/15 00:50:06;;;;;;;19.30;11.87;;;4.50;99.90;;;;;;5061472;28;20447;-40
2022/01/15 00:52:31;;;;;;;19.50;11.90;;;4.40;99.90;;;;;;5061021;28;20648;-40
2022/01/15 00:54:57;;;;;;;20.00;12.33;;;4.60;99.90;;;;;;5068306;28;20427;-40
2022/01/15 00:57:23;;;;;;;19.03;12.27;;;4.70;99.90;;;;;;5067759;28;20554;-40
2022/01/15 00:59:49;;;;;;;17.57;10.90;;;4.40;99.90;;;;;;5067209;28;20297;-41
2022/01/15 01:02:15;;;;;;;18.40;12.53;;;4.60;99.90;;;;;;5067663;28;20263;-40
2022/01/15 01:04:41;;;;;;;20.73;11.70;;;4.40;99.90;;;;;;5067825;28;20423;-40
2022/01/15 01:07:07;;;;;;;20.00;12.37;;;4.50;99.90;;;;;;5060341;28;20434;-40
2022/01/15 01:09:52;;;;;;;20.57;11.87;;;4.50;99.90;;;;;;5067208;28;20398;-40
2022/01/15 01:12:45;;;;;;;18.30;12.10;;;4.70;99.90;;;;;;5054411;28;20475;-40
2022/01/15 01:23:23;;;;;;;19.83;12.03;;;4.40;99.90;;;;;;5065132;28;20481;-40
2022/01/15 01:25:54;;;;;;;18.37;11.70;;;4.50;99.90;;;;;;5065838;28;20827;-40
2022/01/15 01:28:30;;;;;;;20.63;12.70;;;4.40;99.90;;;;;;5067512;28;20560;-40
2022/01/15 01:31:06;;;;;;;19.70;11.40;;;4.50;99.90;;;;;;5066726;28;20419;-40
2022/01/15 01:33:36;;;;;;;18.93;12.97;;;4.60;99.90;;;;;;5067428;28;20431;-40
2022/01/15 01:38:38;;;;;;;18.83;10.80;;;4.50;99.90;;;;;;5066071;28;20459;-41
2022/01/15 01:41:06;;;;;;;19.53;11.90;;;4.30;99.90;;;;;;5066484;28;21000;-40
2022/01/15 01:46:22;;;;;;;16.83;11.20;;;4.50;99.90;;;;;;5067472;28;20442;-41
2022/01/15 01:48:48;;;;;;;22.30;12.27;;;4.60;99.90;;;;;;5065929;28;20430;-40
2022/01/15 01:51:23;;;;;;;21.93;12.40;;;4.50;99.90;;;;;;5056495;28;20455;-43
2022/01/15 01:53:50;;;;;;;17.67;10.30;;;4.40;99.90;;;;;;5060886;28;20940;-41
2022/01/15 01:56:16;;;;;;;16.67;10.37;;;4.30;99.90;;;;;;5066627;28;20486;-40
2022/01/15 01:58:43;;;;;;;16.93;11.77;;;4.40;99.90;;;;;;5067286;28;20884;-40
2022/01/15 02:01:09;;;;;;;15.27;9.83;;;4.50;99.90;;;;;;5066493;28;20443;-40
2022/01/15 02:03:35;;;;;;;15.97;10.57;;;4.70;99.90;;;;;;5067258;28;20224;-40
2022/01/15 02:06:01;;;;;;;16.53;10.70;;;4.70;99.90;;;;;;5059218;28;20299;-40
2022/01/15 02:08:27;;;;;;;15.13;9.77;;;4.40;99.90;;;;;;5064705;28;20447;-40
2022/01/15 02:10:54;;;;;;;17.10;10.77;;;4.40;99.90;;;;;;5066487;28;20280;-40
2022/01/15 02:13:19;;;;;;;14.53;9.57;;;4.40;99.90;;;;;;5068266;28;20867;-41
2022/01/15 02:15:45;;;;;;;13.83;9.97;;;4.50;99.90;;;;;;5077152;28;20514;-40
2022/01/15 02:18:11;;;;;;;17.20;10.47;;;4.40;99.90;;;;;;5087217;28;20402;-40
2022/01/15 02:23:33;;;;;;;14.53;9.37;;;4.40;99.90;;;;;;5047613;28;20431;-40
2022/01/15 02:26:02;;;;;;;13.53;8.90;;;4.50;99.90;;;;;;5065670;28;20447;-41
2022/01/15 02:28:39;;;;;;;13.60;8.67;;;4.60;99.90;;;;;;5066769;28;20854;-40
2022/01/15 02:31:11;;;;;;;13.97;9.90;;;4.40;99.90;;;;;;5066282;28;20411;-40
2022/01/15 02:33:38;;;;;;;16.83;10.07;;;4.40;99.90;;;;;;5070749;28;20776;-41
2022/01/15 02:36:07;;;;;;;13.87;8.33;;;4.60;99.90;;;;;;5065467;28;20428;-40
2022/01/15 02:38:33;;;;;;;11.93;8.47;;;4.60;99.90;;;;;;5062833;28;20415;-40
2022/01/15 02:40:58;;;;;;;14.50;8.50;;;4.70;99.90;;;;;;5069693;28;20468;-40
2022/01/15 02:43:30;;;;;;;11.07;7.03;;;4.60;99.90;;;;;;5070550;28;20647;-40
2022/01/15 02:45:57;;;;;;;13.90;8.50;;;4.80;99.90;;;;;;5070046;28;20272;-42
2022/01/15 02:48:29;;;;;;;12.97;9.00;;;4.80;99.90;;;;;;5085833;28;21022;-40
2022/01/15 02:50:56;;;;;;;9.77;7.53;;;4.70;99.90;;;;;;5064910;28;20510;-40
2022/01/15 02:53:22;;;;;;;10.67;7.67;;;4.70;99.90;;;;;;5062123;28;20430;-40
2022/01/15 02:55:50;;;;;;;9.40;7.30;;;4.50;99.90;;;;;;5070092;28;20443;-41
2022/01/15 02:58:18;;;;;;;12.37;9.17;;;4.90;99.90;;;;;;5070302;28;20877;-40
2022/01/15 03:00:45;;;;;;;10.93;8.10;;;4.70;99.90;;;;;;5069206;28;20423;-41
2022/01/15 03:03:11;;;;;;;10.27;7.50;;;4.80;99.90;;;;;;5070305;28;20423;-41
2022/01/15 03:05:36;;;;;;;14.30;8.10;;;4.70;99.90;;;;;;5069394;28;20481;-41
2022/01/15 03:08:03;;;;;;;12.70;8.80;;;4.70;99.90;;;;;;5067934;28;20836;-40
2022/01/15 03:10:29;;;;;;;12.20;8.87;;;4.80;99.90;;;;;;5069012;28;20235;-40
2022/01/15 03:12:57;;;;;;;9.80;7.67;;;4.80;99.90;;;;;;5069850;28;20435;-41
2022/01/15 03:15:23;;;;;;;9.40;7.40;;;4.70;99.90;;;;;;5080088;28;20188;-41
2022/01/15 03:17:49;;;;;;;10.00;7.50;;;4.70;99.90;;;;;;5090581;28;20454;-40
2022/01/15 03:20:18;;;;;;;11.80;8.50;;;4.60;99.90;;;;;;5089425;28;20425;-40
2022/01/15 03:22:43;;;;;;;12.77;8.67;;;4.70;99.90;;;;;;5061430;28;20427;-40
2022/01/15 03:25:10;;;;;;;11.10;7.60;;;4.70;99.90;;;;;;5067757;28;20514;-40
2022/01/15 03:27:37;;;;;;;12.43;8.13;;;4.80;99.90;;;;;;5069898;28;20184;-40
2022/01/15 03:30:05;;;;;;;11.90;8.10;;;4.70;99.90;;;;;;5069035;28;20423;-40
2022/01/15 03:32:30;;;;;;;10.83;7.67;;;5.00;99.90;;;;;;5069488;28;20426;-41
2022/01/15 03:34:56;;;;;;;11.20;8.07;;;4.70;99.90;;;;;;5069586;28;20423;-42
2022/01/15 03:37:22;;;;;;;8.63;6.40;;;4.60;99.90;;;;;;5057024;28;20256;-40
2022/01/15 03:39:48;;;;;;;9.50;6.60;;;4.70;99.90;;;;;;5068883;28;20630;-40
2022/01/15 03:42:14;;;;;;;12.47;7.90;;;4.70;99.90;;;;;;5068878;28;20190;-41
2022/01/15 03:44:45;;;;;;;10.03;6.87;;;4.60;99.90;;;;;;5069674;28;20529;-40
2022/01/15 03:47:12;;;;;;;9.43;6.97;;;4.80;99.90;;;;;;5069236;28;20430;-40
2022/01/15 03:49:40;;;;;;;10.17;6.83;;;4.60;99.90;;;;;;5069221;28;20431;-40
2022/01/15 03:52:07;;;;;;;11.50;7.03;;;4.60;99.90;;;;;;5061440;28;20520;-40
2022/01/15 03:54:33;;;;;;;9.67;7.50;;;4.70;99.90;;;;;;5069072;28;20857;-40
2022/01/15 03:57:00;;;;;;;10.10;6.60;;;4.70;99.90;;;;;;5068991;28;20676;-40
2022/01/15 03:59:26;;;;;;;12.23;7.50;;;4.60;99.90;;;;;;5069364;28;20424;-40
2022/01/15 04:01:51;;;;;;;11.80;7.43;;;4.70;99.90;;;;;;5068433;28;20450;-40
2022/01/15 04:04:18;;;;;;;10.23;6.73;;;4.70;99.90;;;;;;5069026;28;20559;-40
2022/01/15 04:06:44;;;;;;;11.67;7.30;;;4.60;99.90;;;;;;5063294;28;20194;-40
2022/01/15 04:09:11;;;;;;;10.60;6.67;;;4.70;99.90;;;;;;5066329;28;20427;-40
2022/01/15 04:11:37;;;;;;;11.47;7.00;;;4.80;99.90;;;;;;5068312;28;20506;-40
2022/01/15 04:14:04;;;;;;;10.50;6.90;;;4.60;99.90;;;;;;5075645;28;20431;-41
2022/01/15 04:16:30;;;;;;;11.10;7.33;;;4.50;99.90;;;;;;5085786;28;20811;-40
2022/01/15 04:18:59;;;;;;;10.60;7.23;;;4.60;99.90;;;;;;5088847;28;20418;-42
2022/01/15 04:21:26;;;;;;;11.67;8.10;;;4.60;99.90;;;;;;5082353;28;20431;-42
2022/01/15 04:23:52;;;;;;;12.00;9.33;;;4.60;99.90;;;;;;5061865;28;20414;-41
2022/01/15 04:26:23;;;;;;;10.07;7.43;;;4.60;99.90;;;;;;5067240;28;20479;-40
2022/01/15 04:28:50;;;;;;;12.93;8.03;;;4.40;99.90;;;;;;5084574;28;20502;-40
2022/01/15 04:31:17;;;;;;;13.30;7.67;;;4.70;99.90;;;;;;5067441;28;20420;-40
2022/01/15 04:33:43;;;;;;;11.77;7.57;;;4.80;99.90;;;;;;5068529;28;20412;-43
2022/01/15 04:36:09;;;;;;;11.83;7.80;;;4.40;99.90;;;;;;5067103;28;20892;-40
2022/01/15 04:38:37;;;;;;;13.00;7.07;;;4.40;99.90;;;;;;5059789;28;20415;-40
2022/01/15 04:41:07;;;;;;;12.37;8.17;;;4.40;99.90;;;;;;5067282;28;20621;-40
2022/01/15 04:43:32;;;;;;;10.33;7.93;;;4.60;99.90;;;;;;5068132;28;20416;-41
2022/01/15 04:45:58;;;;;;;11.53;8.00;;;4.50;99.90;;;;;;5067854;28;20428;-40
2022/01/15 04:48:24;;;;;;;12.87;8.80;;;4.50;99.90;;;;;;5068237;28;20189;-40
2022/01/15 04:50:50;;;;;;;13.37;8.20;;;4.30;99.90;;;;;;5067108;28;20192;-40
2022/01/15 04:53:16;;;;;;;11.60;7.80;;;4.40;99.90;;;;;;5059685;28;20843;-42
2022/01/15 04:55:41;;;;;;;9.57;7.07;;;4.70;99.90;;;;;;5067252;28;20189;-40
2022/01/15 04:58:07;;;;;;;10.60;8.07;;;4.70;99.90;;;;;;5067905;28;20248;-40
2022/01/15 05:00:35;;;;;;;10.77;7.27;;;4.50;99.90;;;;;;5067200;28;20181;-40
2022/01/15 05:03:01;;;;;;;9.30;6.97;;;4.70;99.90;;;;;;5067675;28;20513;-41
2022/01/15 05:05:28;;;;;;;10.63;7.23;;;4.40;99.90;;;;;;5083203;28;20431;-40
2022/01/15 05:07:55;;;;;;;10.10;7.37;;;4.60;99.90;;;;;;5053551;28;20432;-39
2022/01/15 05:10:26;;;;;;;10.20;6.93;;;4.60;99.90;;;;;;5064039;28;20452;-40
2022/01/15 05:12:55;;;;;;;11.77;7.93;;;4.50;99.90;;;;;;5066340;28;20427;-40
2022/01/15 05:15:21;;;;;;;8.00;7.03;;;4.50;99.90;;;;;;5081185;28;21007;-42
2022/01/15 05:17:48;;;;;;;9.43;7.40;;;4.30;99.90;;;;;;5079213;28;20667;-40
2022/01/15 05:20:19;;;;;;;8.60;6.53;;;4.40;99.90;;;;;;5086766;28;20939;-40
2022/01/15 05:22:46;;;;;;;8.57;6.90;;;4.30;99.90;;;;;;5063831;28;20996;-41
2022/01/15 05:25:17;;;;;;;8.03;6.13;;;4.30;99.90;;;;;;5064916;28;20447;-43
2022/01/15 05:27:43;;;;;;;10.13;7.67;;;4.30;99.90;;;;;;5065131;28;20432;-40
2022/01/15 05:30:10;;;;;;;9.57;7.27;;;4.20;99.90;;;;;;5066935;28;20785;-41
2022/01/15 05:32:36;;;;;;;9.63;7.60;;;4.30;99.90;;;;;;5067145;28;20427;-40
2022/01/15 05:35:03;;;;;;;11.30;7.63;;;4.20;99.90;;;;;;5067341;28;20426;-40
2022/01/15 05:37:29;;;;;;;9.83;6.67;;;4.40;99.90;;;;;;5081524;28;20463;-40
2022/01/15 05:39:55;;;;;;;11.27;6.83;;;4.20;99.90;;;;;;5059955;28;20418;-40
2022/01/15 05:42:20;;;;;;;11.10;8.20;;;4.30;99.90;;;;;;5067194;28;20462;-42
2022/01/15 05:44:46;;;;;;;11.70;7.90;;;4.10;99.90;;;;;;5067347;28;20273;-40
2022/01/15 05:47:12;;;;;;;9.00;6.00;;;4.00;99.90;;;;;;5067035;28;20724;-40
2022/01/15 05:49:38;;;;;;;9.47;6.90;;;4.10;99.90;;;;;;5066959;28;20317;-41
2022/01/15 05:52:04;;;;;;;7.83;5.50;;;4.00;99.90;;;;;;5061587;28;20703;-40
2022/01/15 05:54:30;;;;;;;9.27;7.07;;;4.40;99.90;;;;;;5060712;28;20770;-40
2022/01/15 05:56:56;;;;;;;8.20;5.87;;;4.20;99.90;;;;;;5066899;28;20474;-40
2022/01/15 05:59:21;;;;;;;10.30;6.10;;;4.00;99.90;;;;;;5067203;28;20192;-42
2022/01/15 06:01:47;;;;;;;9.00;6.43;;;4.20;99.90;;;;;;5065766;28;20303;-40
2022/01/15 06:04:13;;;;;;;8.40;5.60;;;4.20;99.90;;;;;;5067163;28;20262;-39
2022/01/15 06:06:39;;;;;;;6.93;5.80;;;4.10;99.90;;;;;;5067322;28;20468;-40
2022/01/15 06:09:05;;;;;;;9.17;6.10;;;4.10;99.90;;;;;;5061265;28;20192;-40
2022/01/15 06:11:31;;;;;;;7.63;5.80;;;4.10;99.90;;;;;;5070514;28;20185;-40
2022/01/15 06:13:57;;;;;;;8.23;5.97;;;3.80;99.90;;;;;;5074307;28;20480;-40
2022/01/15 06:16:23;;;;;;;9.20;6.30;;;3.80;99.90;;;;;;5080748;28;20415;-41
2022/01/15 06:18:49;;;;;;;10.63;6.33;;;4.10;99.90;;;;;;5091343;28;20176;-40
2022/01/15 06:21:15;;;;;;;8.80;6.10;;;4.00;99.90;;;;;;5090417;28;20417;-40
2022/01/15 06:23:41;;;;;;;9.47;5.97;;;3.90;99.90;;;;;;5068039;28;20453;-41
2022/01/15 06:26:07;;;;;;;11.60;7.23;;;4.00;99.90;;;;;;5069444;28;20465;-40
2022/01/15 06:28:33;;;;;;;9.07;6.50;;;4.10;99.90;;;;;;5070641;28;20193;-40
2022/01/15 06:30:59;;;;;;;9.63;6.70;;;4.00;99.90;;;;;;5070090;28;20810;-40
2022/01/15 06:33:25;;;;;;;13.00;7.90;;;3.80;99.90;;;;;;5070679;28;20423;-40
2022/01/15 06:35:50;;;;;;;12.77;7.50;;;3.80;99.90;;;;;;5070657;28;21025;-42
2022/01/15 06:38:16;;;;;;;11.67;7.20;;;4.20;99.90;;;;;;5061056;28;20286;-40
2022/01/15 06:40:42;;;;;;;12.30;7.40;;;4.10;99.90;;;;;;5064868;28;20180;-40
2022/01/15 06:43:07;;;;;;;11.40;6.50;;;3.90;99.90;;;;;;5070616;28;20185;-40
2022/01/15 06:45:34;;;;;;;11.40;6.90;;;4.00;99.90;;;;;;5070328;28;20192;-41
2022/01/15 06:48:00;;;;;;;11.10;5.60;;;3.90;99.90;;;;;;5083719;28;20181;-40
2022/01/15 06:50:27;;;;;;;15.47;6.97;;;4.10;99.90;;;;;;5070375;28;20423;-40
2022/01/15 06:52:54;;;;;;;10.33;6.80;;;4.00;99.90;;;;;;5068626;28;20726;-40
2022/01/15 06:55:20;;;;;;;12.40;6.53;;;4.00;99.90;;;;;;5066946;28;20937;-40
2022/01/15 06:57:46;;;;;;;11.90;6.47;;;3.80;99.90;;;;;;5070195;28;21012;-40
2022/01/15 07:00:14;;;;;;;13.23;7.40;;;3.90;99.90;;;;;;5069075;28;20447;-40
2022/01/15 07:02:39;;;;;;;11.63;7.00;;;3.90;99.90;;;;;;5070034;28;20840;-41
2022/01/15 07:05:06;;;;;;;14.20;7.30;;;3.80;99.90;;;;;;5069957;28;20465;-40
2022/01/15 07:07:32;;;;;;;14.03;6.77;;;3.80;99.90;;;;;;5065006;28;20423;-40
2022/01/15 07:09:58;;;;;;;14.73;6.50;;;3.80;99.90;;;;;;5064354;28;20427;-40
2022/01/15 07:12:24;;;;;;;10.33;6.70;;;3.80;99.90;;;;;;5069690;28;20414;-40
2022/01/15 07:14:50;;;;;;;13.57;6.40;;;3.90;99.90;;;;;;5084958;28;20184;-40
2022/01/15 07:17:16;;;;;;;9.67;6.47;;;3.80;99.90;;;;;;5082535;28;20465;-41
2022/01/15 07:19:42;;;;;;;20.43;6.00;;;3.90;99.90;;;;;;5089368;28;20449;-41
2022/01/15 07:22:08;;;;;;;11.33;6.67;;;3.90;99.90;;;;;;5086937;28;20422;-40
2022/01/15 07:24:34;;;;;;;12.63;6.43;;;3.90;99.90;;;;;;5064574;28;20717;-40
2022/01/15 07:27:00;;;;;;;10.90;6.17;;;3.80;99.90;;;;;;5067965;28;20415;-40
2022/01/15 07:29:29;;;;;;;21.50;8.37;;;3.60;99.90;;;;;;5068356;28;20446;-40
2022/01/15 07:31:54;;;;;;;13.67;6.60;;;3.80;99.90;;;;;;5068930;28;20442;-40
2022/01/15 07:34:20;;;;;;;8.83;5.73;;;3.60;99.90;;;;;;5069738;28;20431;-42
2022/01/15 07:36:57;;;;;;;13.50;8.10;;;3.60;99.90;;;;;;5065823;28;20261;-40
2022/01/15 07:39:23;;;;;;;10.37;6.57;;;3.50;99.90;;;;;;5062863;28;20538;-39
2022/01/15 07:41:49;;;;;;;15.67;7.23;;;3.70;99.90;;;;;;5069797;28;20959;-40
2022/01/15 07:44:15;;;;;;;10.20;6.00;;;3.70;99.90;;;;;;5068848;28;20436;-40
2022/01/15 07:46:40;;;;;;;15.87;8.53;;;3.70;99.90;;;;;;5068956;28;20395;-40
2022/01/15 07:49:06;;;;;;;12.43;7.53;;;3.60;99.90;;;;;;5070055;28;20719;-41
2022/01/15 07:51:32;;;;;;;13.53;7.30;;;3.50;99.90;;;;;;5067185;28;20246;-40
2022/01/15 07:53:58;;;;;;;13.67;7.77;;;3.40;99.90;;;;;;5065802;28;20673;-40
2022/01/15 07:56:24;;;;;;;11.00;6.90;;;3.40;99.90;;;;;;5061351;28;20235;-40
2022/01/15 07:58:49;;;;;;;12.37;7.63;;;3.50;99.90;;;;;;5068780;28;20869;-40
2022/01/15 08:01:16;;;;;;;18.97;8.90;;;3.60;99.90;;;;;;5073862;28;20660;-40
2022/01/15 08:03:42;;;;;;;12.63;7.33;;;3.80;99.90;;;;;;5071631;28;20627;-40
2022/01/15 08:06:09;;;;;;;14.67;7.40;;;3.50;99.90;;;;;;5089579;28;20470;-40
2022/01/15 08:08:35;;;;;;;13.27;7.10;;;3.60;99.90;;;;;;5059720;28;20193;-41
2022/01/15 08:11:01;;;;;;;13.70;8.33;;;3.60;99.90;;;;;;5066313;28;20416;-40
2022/01/15 08:13:27;;;;;;;10.43;7.07;;;3.50;99.90;;;;;;5068227;28;20652;-40
2022/01/15 08:15:53;;;;;;;12.63;7.40;;;3.30;99.90;;;;;;5068909;28;20424;-40
2022/01/15 08:18:21;;;;;;;10.47;7.50;;;3.60;99.90;;;;;;5066504;28;20227;-40
2022/01/15 08:20:48;;;;;;;15.50;7.60;;;3.40;99.90;;;;;;5067982;28;20416;-40
2022/01/15 08:23:14;;;;;;;13.37;7.43;;;3.60;99.90;;;;;;5062660;28;20490;-40
2022/01/15 08:25:40;;;;;;;12.10;8.30;;;3.50;99.90;;;;;;5061807;28;20419;-40
2022/01/15 08:28:05;;;;;;;14.50;8.87;;;3.50;99.90;;;;;;5067227;28;20416;-39
2022/01/15 08:30:31;;;;;;;12.10;7.63;;;3.50;99.90;;;;;;5062089;28;20196;-40
2022/01/15 08:32:57;;;;;;;12.13;7.37;;;3.50;99.90;;;;;;5065430;28;20239;-42
2022/01/15 08:35:23;;;;;;;12.00;7.90;;;3.40;99.90;;;;;;5065574;28;20480;-40
2022/01/15 08:37:49;;;;;;;17.37;9.80;;;3.30;99.90;;;;;;5064012;28;20797;-40
2022/01/15 08:40:17;;;;;;;14.40;9.47;;;3.60;99.90;;;;;;5060008;28;20520;-40
2022/01/15 08:42:43;;;;;;;15.70;10.07;;;3.70;99.90;;;;;;5067833;28;20415;-40
2022/01/15 08:45:10;;;;;;;13.10;8.17;;;3.40;99.90;;;;;;5061583;28;20454;-41
2022/01/15 08:47:36;;;;;;;34.63;10.07;;;3.60;99.90;;;;;;5065675;28;20431;-40
2022/01/15 08:50:04;;;;;;;28.67;8.80;;;3.60;99.90;;;;;;5066949;28;20437;-41
2022/01/15 08:52:30;;;;;;;13.00;8.73;;;3.50;99.90;;;;;;5065857;28;20775;-43
2022/01/15 08:54:55;;;;;;;15.43;9.43;;;3.60;99.90;;;;;;5061132;28;20438;-41
2022/01/15 08:57:21;;;;;;;14.00;9.60;;;3.40;99.90;;;;;;5066128;28;20643;-40
2022/01/15 08:59:47;;;;;;;15.30;9.17;;;3.40;99.90;;;;;;5067283;28;20415;-40
2022/01/15 09:02:12;;;;;;;14.07;9.63;;;3.30;99.90;;;;;;5067660;28;20250;-40
2022/01/15 09:04:38;;;;;;;18.47;9.70;;;3.40;99.90;;;;;;5067155;28;20742;-44
2022/01/15 09:07:04;;;;;;;14.37;9.30;;;3.50;99.90;;;;;;5069705;28;20197;-40
2022/01/15 09:09:30;;;;;;;12.87;8.67;;;3.60;99.90;;;;;;5061602;28;20286;-39
2022/01/15 09:11:56;;;;;;;14.57;9.60;;;3.60;99.90;;;;;;5064368;28;20432;-40
2022/01/15 09:14:21;;;;;;;15.90;9.67;;;3.70;99.90;;;;;;5067148;28;20201;-40
2022/01/15 09:16:47;;;;;;;16.07;9.83;;;3.80;99.90;;;;;;5066976;28;20291;-40
2022/01/15 09:19:13;;;;;;;18.40;11.10;;;3.60;99.90;;;;;;5066142;28;20187;-40
2022/01/15 09:21:39;;;;;;;21.40;9.63;;;3.60;99.90;;;;;;5066366;28;20476;-40
2022/01/15 09:24:05;;;;;;;14.57;9.37;;;3.60;99.90;;;;;;5057602;28;20425;-41
2022/01/15 09:32:01;;;;;;;15.93;9.83;;;3.50;99.90;;;;;;5055751;28;20489;-40
2022/01/15 09:34:27;;;;;;;13.10;8.83;;;3.80;99.90;;;;;;5065927;28;20890;-40
2022/01/15 09:36:53;;;;;;;13.43;9.23;;;3.60;99.90;;;;;;5065704;28;20825;-40
2022/01/15 09:39:20;;;;;;;12.30;8.60;;;3.90;99.90;;;;;;5056964;28;20675;-42
2022/01/15 09:41:48;;;;;;;16.47;9.40;;;3.60;99.90;;;;;;5064781;28;20432;-40
2022/01/15 09:44:17;;;;;;;13.97;9.00;;;3.80;99.90;;;;;;5065810;28;20534;-40
2022/01/15 09:46:44;;;;;;;19.90;9.67;;;3.70;99.90;;;;;;5066368;28;20416;-40
2022/01/15 09:49:13;;;;;;;16.43;9.53;;;3.60;99.90;;;;;;5067313;28;20454;-41
2022/01/15 09:51:39;;;;;;;16.60;9.93;;;4.00;99.90;;;;;;5066724;28;20545;-40
2022/01/15 09:54:04;;;;;;;15.70;9.50;;;3.70;99.90;;;;;;5061199;28;20977;-40
2022/01/15 09:56:30;;;;;;;12.40;8.90;;;3.70;99.90;;;;;;5065532;28;20197;-40
2022/01/15 09:58:58;;;;;;;13.20;9.50;;;3.60;99.90;;;;;;5066806;28;20196;-41
2022/01/15 10:01:28;;;;;;;14.30;8.73;;;3.70;99.90;;;;;;5066279;28;20821;-42
2022/01/15 10:03:53;;;;;;;19.00;8.47;;;3.60;99.90;;;;;;5066817;28;20434;-40
2022/01/15 10:06:19;;;;;;;15.07;9.17;;;3.70;99.90;;;;;;5067646;28;20427;-40
2022/01/15 10:09:08;;;;;;;18.23;8.50;;;3.70;99.90;;;;;;5062168;28;20181;-41
2022/01/15 10:11:44;;;;;;;21.67;8.53;;;3.70;99.90;;;;;;5064952;28;20185;-40
2022/01/15 10:14:43;;;;;;;15.17;8.23;;;3.70;99.90;;;;;;5075366;28;20427;-40
2022/01/15 10:17:24;;;;;;;13.07;8.43;;;3.60;99.90;;;;;;5083226;28;20466;-40
2022/01/15 10:19:50;;;;;;;14.90;8.73;;;3.80;99.90;;;;;;5079726;28;20741;-40
2022/01/15 10:22:17;;;;;;;13.47;9.03;;;3.60;99.90;;;;;;5086964;28;20432;-40
2022/01/15 10:24:50;;;;;;;12.97;9.10;;;3.50;99.90;;;;;;5065721;28;20824;-40
2022/01/15 10:27:47;;;;;;;10.77;7.23;;;3.60;99.90;;;;;;5066734;28;20467;-41
2022/01/15 10:30:29;;;;;;;13.07;9.50;;;3.90;99.90;;;;;;5053142;28;20467;-41
2022/01/15 10:33:02;;;;;;;15.53;9.10;;;3.90;99.90;;;;;;5066496;28;20438;-40
2022/01/15 10:35:42;;;;;;;13.10;9.03;;;4.10;99.90;;;;;;5066909;28;20427;-41
2022/01/15 10:38:17;;;;;;;11.53;8.83;;;4.00;99.90;;;;;;5066818;28;20553;-40
2022/01/15 10:40:50;;;;;;;14.07;8.83;;;4.00;99.90;;;;;;5052778;28;20857;-42
2022/01/15 10:43:18;;;;;;;14.03;8.90;;;4.00;99.90;;;;;;5067030;28;20434;-41
2022/01/15 10:45:53;;;;;;;11.57;7.93;;;4.00;99.90;;;;;;5066458;28;20443;-40
2022/01/15 10:48:32;;;;;;;12.97;9.27;;;3.90;99.90;;;;;;5066776;28;20510;-41
2022/01/15 10:51:01;;;;;;;14.27;9.43;;;3.90;99.90;;;;;;5065761;28;20434;-40
2022/01/15 10:54:01;;;;;;;14.60;9.60;;;3.90;99.90;;;;;;5067571;28;20447;-41
2022/01/15 10:56:27;;;;;;;11.20;8.20;;;3.90;99.90;;;;;;5061465;28;20809;-40
2022/01/15 10:59:07;;;;;;;12.33;7.77;;;4.10;99.90;;;;;;5070101;28;20521;-40
2022/01/15 11:01:32;;;;;;;10.30;7.90;;;4.10;99.90;;;;;;5069289;28;20769;-40
2022/01/15 11:03:58;;;;;;;9.67;7.33;;;4.10;99.90;;;;;;5069779;28;20431;-40
2022/01/15 11:06:38;;;;;;;11.63;8.17;;;4.00;99.90;;;;;;5070264;28;20299;-40
2022/01/15 11:09:03;;;;;;;10.00;8.07;;;4.10;99.90;;;;;;5065211;28;20188;-41
2022/01/15 11:11:32;;;;;;;11.77;8.80;;;4.20;99.90;;;;;;5064668;28;20918;-40
2022/01/15 11:13:58;;;;;;;16.20;8.80;;;4.30;99.90;;;;;;5066033;28;20652;-40
2022/01/15 11:16:24;;;;;;;11.90;9.10;;;4.30;99.90;;;;;;5069696;28;20424;-42
2022/01/15 11:18:54;;;;;;;17.63;10.53;;;4.30;99.90;;;;;;5068933;28;20827;-40
2022/01/15 11:21:26;;;;;;;24.30;10.93;;;4.10;99.90;;;;;;5069522;28;20188;-40
2022/01/15 11:23:51;;;;;;;14.27;9.10;;;4.10;99.90;;;;;;5067667;28;20438;-40
2022/01/15 11:26:23;;;;;;;16.80;11.10;;;4.10;99.90;;;;;;5066210;28;20795;-42
2022/01/15 11:28:49;;;;;;;14.70;10.20;;;4.10;99.90;;;;;;5069395;28;20196;-40
2022/01/15 11:31:25;;;;;;;13.73;9.17;;;4.00;99.90;;;;;;5069104;28;20427;-43
2022/01/15 11:33:53;;;;;;;31.10;11.40;;;4.10;99.90;;;;;;5069492;28;20261;-40
2022/01/15 11:36:34;;;;;;;14.40;9.47;;;4.20;99.90;;;;;;5069673;28;20424;-40
2022/01/15 11:39:03;;;;;;;19.83;10.97;;;4.10;99.90;;;;;;5066735;28;20777;-40
2022/01/15 11:41:29;;;;;;;14.83;9.60;;;4.10;99.90;;;;;;5059943;28;20937;-41
2022/01/15 11:44:01;;;;;;;15.83;11.37;;;4.10;99.90;;;;;;5069382;28;20725;-40
2022/01/15 11:46:31;;;;;;;16.73;10.10;;;4.00;99.90;;;;;;5057169;28;20187;-41
2022/01/15 11:49:25;;;;;;;16.60;9.83;;;4.00;99.90;;;;;;5069132;28;20411;-42
2022/01/15 11:51:56;;;;;;;12.37;8.90;;;4.10;99.90;;;;;;5068417;28;20419;-40
2022/01/15 11:54:22;;;;;;;13.83;9.53;;;4.10;99.90;;;;;;5065502;28;20457;-42
2022/01/15 11:56:49;;;;;;;15.60;10.90;;;4.10;99.90;;;;;;5061982;28;20530;-41
2022/01/15 11:59:24;;;;;;;14.23;9.80;;;4.30;99.90;;;;;;5068740;28;20625;-43
2022/01/15 12:01:57;;;;;;;14.23;9.80;;;4.20;99.90;;;;;;5068441;28;20422;-43
2022/01/15 12:04:27;;;;;;;28.40;11.93;;;4.30;99.90;;;;;;5067511;28;20427;-41
2022/01/15 12:07:05;;;;;;;16.10;10.20;;;4.20;99.90;;;;;;5069199;28;20797;-40
2022/01/15 12:09:44;;;;;;;15.10;10.00;;;4.00;99.90;;;;;;5066385;28;20464;-41
2022/01/15 12:12:30;;;;;;;15.57;11.10;;;4.10;99.90;;;;;;5065750;28;20462;-40
2022/01/15 12:14:56;;;;;;;14.50;10.57;;;4.30;99.90;;;;;;5063551;28;20998;-43
2022/01/15 12:17:32;;;;;;;16.47;10.27;;;4.10;99.90;;;;;;5068597;28;20459;-43
2022/01/15 12:20:00;;;;;;;14.57;10.00;;;4.10;99.90;;;;;;5067222;28;20655;-44
2022/01/15 12:22:44;;;;;;;18.53;10.73;;;4.40;99.90;;;;;;5068301;28;20480;-41
2022/01/15 12:25:19;;;;;;;15.73;11.10;;;4.40;99.90;;;;;;5064557;28;20431;-44
2022/01/15 12:27:56;;;;;;;13.50;9.37;;;4.40;99.90;;;;;;5061817;28;20454;-40
2022/01/15 12:30:23;;;;;;;15.20;9.87;;;4.40;99.90;;;;;;5067775;28;20426;-40
2022/01/15 12:32:51;;;;;;;14.23;9.43;;;4.40;99.90;;;;;;5083692;28;20429;-43
2022/01/15 12:35:23;;;;;;;12.90;9.97;;;4.20;99.90;;;;;;5068628;28;20582;-42
2022/01/15 12:37:58;;;;;;;15.03;10.43;;;4.20;99.90;;;;;;5068232;28;20829;-42
2022/01/15 12:40:40;;;;;;;16.27;10.90;;;4.50;99.90;;;;;;5057838;28;20437;-40
2022/01/15 12:43:09;;;;;;;15.93;10.67;;;4.30;99.90;;;;;;5063051;28;20865;-42
2022/01/15 12:45:36;;;;;;;14.87;11.37;;;4.50;99.90;;;;;;5068376;28;20418;-40
2022/01/15 12:48:03;;;;;;;14.47;9.30;;;4.70;99.90;;;;;;5067534;28;20789;-42
2022/01/15 12:50:42;;;;;;;12.90;9.40;;;4.40;99.90;;;;;;5067420;28;20431;-41
2022/01/15 12:53:07;;;;;;;13.00;9.60;;;4.80;99.90;;;;;;5067913;28;20515;-42
2022/01/15 12:55:37;;;;;;;12.43;9.30;;;4.80;99.90;;;;;;5057707;28;20469;-40
2022/01/15 12:58:04;;;;;;;15.27;10.63;;;4.50;99.90;;;;;;5062494;28;20467;-41
2022/01/15 13:00:32;;;;;;;18.40;10.67;;;4.50;99.90;;;;;;5067027;28;20430;-40
2022/01/15 13:03:08;;;;;;;13.73;10.13;;;4.70;99.90;;;;;;5067879;28;20419;-45
2022/01/15 13:05:42;;;;;;;17.17;10.53;;;4.60;99.90;;;;;;5067848;28;20952;-41
2022/01/15 13:08:13;;;;;;;13.90;10.20;;;4.80;99.90;;;;;;5067869;28;20434;-42
2022/01/15 13:13:19;;;;;;;13.97;10.10;;;4.80;99.90;;;;;;5063862;28;20642;-40
2022/01/15 13:15:44;;;;;;;14.10;9.63;;;4.90;99.90;;;;;;5064599;28;20895;-40